createdAt,value
2023-03-02T00:01:40.880Z,1.46
2023-03-02T00:04:13.971Z,1.43
2023-03-02T00:06:41.655Z,1.47
2023-03-02T00:09:09.480Z,1.46
2023-03-02T00:11:38.801Z,1.54
2023-03-02T00:14:08.236Z,1.53
2023-03-02T00:16:35.833Z,1.54
2023-03-02T00:19:03.465Z,1.54
2023-03-02T00:21:31.657Z,1.62
2023-03-02T00:23:59.294Z,1.53
2023-03-02T00:26:26.821Z,1.52
2023-03-02T00:28:54.436Z,1.44
2023-03-02T00:31:23.333Z,1.54
2023-03-02T00:33:51.081Z,1.51
2023-03-02T00:36:20.438Z,1.59
2023-03-02T00:38:48.814Z,1.57
2023-03-02T00:41:17.667Z,1.60
2023-03-02T00:43:45.291Z,1.58
2023-03-02T00:46:14.772Z,1.58
2023-03-02T00:48:43.782Z,1.49
2023-03-02T00:51:12.218Z,1.54
2023-03-02T00:53:40.048Z,1.55
2023-03-02T00:56:09.577Z,1.58
2023-03-02T00:58:40.613Z,1.54
2023-03-02T01:01:11.315Z,1.49
2023-03-02T01:03:44.081Z,1.51
2023-03-02T01:06:16.446Z,1.49
2023-03-02T01:08:44.311Z,1.49
2023-03-02T01:11:16.196Z,1.49
2023-03-02T01:13:43.868Z,1.54
2023-03-02T01:16:12.645Z,1.49
2023-03-02T01:18:40.534Z,1.44
2023-03-02T01:21:13.424Z,1.44
2023-03-02T01:23:41.006Z,1.41
2023-03-02T01:26:09.061Z,1.35
2023-03-02T01:28:36.611Z,1.39
2023-03-02T01:31:04.608Z,1.46
2023-03-02T01:33:32.348Z,1.42
2023-03-02T01:36:00.016Z,1.37
2023-03-02T01:38:29.089Z,1.41
2023-03-02T01:40:57.152Z,1.34
2023-03-02T01:43:25.127Z,1.33
2023-03-02T01:45:55.411Z,1.37
2023-03-02T01:48:49.745Z,1.36
2023-03-02T01:51:25.454Z,1.37
2023-03-02T01:53:59.759Z,1.43
2023-03-02T01:56:31.979Z,1.44
2023-03-02T01:59:03.256Z,1.45
2023-03-02T02:01:33.289Z,1.36
2023-03-02T02:04:01.531Z,1.22
2023-03-02T02:06:33.899Z,1.24
2023-03-02T02:09:05.026Z,1.17
2023-03-02T02:11:32.613Z,1.10
2023-03-02T02:14:02.786Z,1.13
2023-03-02T02:16:33.827Z,1.08
2023-03-02T02:19:02.606Z,1.13
2023-03-02T02:21:30.588Z,1.06
2023-03-02T02:24:10.777Z,1.12
2023-03-02T02:26:43.545Z,1.08
2023-03-02T02:29:14.686Z,1.10
2023-03-02T02:31:48.192Z,1.17
2023-03-02T02:34:22.386Z,1.18
2023-03-02T02:36:56.191Z,1.04
2023-03-02T02:39:29.424Z,1.07
2023-03-02T02:42:01.590Z,1.04
2023-03-02T02:44:30.626Z,0.97
2023-03-02T02:46:58.281Z,0.90
2023-03-02T02:49:31.642Z,0.89
2023-03-02T02:52:00.290Z,0.86
2023-03-02T02:54:29.678Z,0.92
2023-03-02T02:57:00.560Z,0.96
2023-03-02T02:59:33.112Z,1.04
2023-03-02T03:02:02.206Z,1.01
2023-03-02T03:04:32.232Z,0.87
2023-03-02T03:07:01.859Z,0.78
2023-03-02T03:09:30.504Z,0.67
2023-03-02T03:12:03.900Z,0.63
2023-03-02T03:14:36.057Z,0.58
2023-03-02T03:17:03.728Z,0.63
2023-03-02T03:19:33.797Z,0.68
2023-03-02T03:22:03.172Z,0.66
2023-03-02T03:24:36.261Z,0.78
2023-03-02T03:27:07.972Z,0.76
2023-03-02T03:29:42.185Z,0.70
2023-03-02T03:32:11.527Z,0.78
2023-03-02T03:34:40.705Z,0.88
2023-03-02T03:37:16.480Z,0.91
2023-03-02T03:39:44.881Z,0.85
2023-03-02T03:42:14.390Z,0.88
2023-03-02T03:44:42.379Z,0.72
2023-03-02T03:47:10.051Z,0.72
2023-03-02T03:49:38.053Z,0.77
2023-03-02T03:52:07.189Z,0.72
2023-03-02T03:54:34.732Z,0.77
2023-03-02T03:57:02.391Z,0.77
2023-03-02T03:59:31.297Z,0.68
2023-03-02T04:02:03.210Z,0.74
2023-03-02T04:04:37.255Z,0.83
2023-03-02T04:07:10.112Z,0.83
2023-03-02T04:09:39.146Z,0.90
2023-03-02T04:12:09.570Z,0.95
2023-03-02T04:14:40.110Z,0.93
2023-03-02T04:17:08.301Z,0.89
2023-03-02T04:19:40.795Z,0.83
2023-03-02T04:22:09.073Z,0.84
2023-03-02T04:24:36.611Z,0.87
2023-03-02T04:27:05.636Z,0.85
2023-03-02T04:29:35.288Z,0.91
2023-03-02T04:32:06.266Z,0.95
2023-03-02T04:34:35.311Z,0.94
2023-03-02T04:37:03.388Z,0.97
2023-03-02T04:39:30.966Z,0.94
2023-03-02T04:41:58.554Z,0.94
2023-03-02T04:44:26.130Z,0.95
2023-03-02T04:46:53.683Z,0.96
2023-03-02T04:49:22.778Z,0.96
2023-03-02T04:51:51.381Z,0.93
2023-03-02T04:54:22.856Z,0.94
2023-03-02T04:56:51.485Z,0.88
2023-03-02T04:59:20.622Z,0.97
2023-03-02T05:01:48.987Z,0.89
2023-03-02T05:04:17.279Z,0.86
2023-03-02T05:06:46.558Z,0.88
2023-03-02T05:09:14.108Z,0.87
2023-03-02T05:11:41.780Z,0.84
2023-03-02T05:14:12.376Z,0.78
2023-03-02T05:16:42.901Z,0.76
2023-03-02T05:19:12.271Z,0.81
2023-03-02T05:21:40.338Z,0.82
2023-03-02T05:24:09.577Z,0.89
2023-03-02T05:26:37.594Z,0.90
2023-03-02T05:29:05.578Z,0.85
2023-03-02T05:31:35.955Z,0.61
2023-03-02T05:34:04.958Z,0.78
2023-03-02T05:36:33.647Z,0.80
2023-03-02T05:39:01.415Z,0.87
2023-03-02T05:41:30.717Z,0.84
2023-03-02T05:43:58.304Z,0.80
2023-03-02T05:46:26.499Z,0.83
2023-03-02T05:48:54.179Z,0.84
2023-03-02T05:51:21.822Z,0.85
2023-03-02T05:53:49.355Z,0.82
2023-03-02T05:56:17.145Z,0.82
2023-03-02T05:58:46.052Z,0.90
2023-03-02T06:01:15.420Z,0.91
2023-03-02T06:03:43.743Z,1.03
2023-03-02T06:06:13.865Z,0.93
2023-03-02T06:08:41.932Z,0.95
2023-03-02T06:11:10.494Z,0.98
2023-03-02T06:13:38.514Z,1.03
2023-03-02T06:16:08.488Z,1.00
2023-03-02T06:18:36.625Z,1.03
2023-03-02T06:21:04.698Z,0.98
2023-03-02T06:23:32.368Z,0.94
2023-03-02T06:26:00.092Z,0.98
2023-03-02T06:28:28.542Z,1.03
2023-03-02T06:30:56.136Z,1.16
2023-03-02T06:33:25.072Z,1.12
2023-03-02T06:35:52.745Z,1.08
2023-03-02T06:38:20.427Z,1.13
2023-03-02T06:40:47.967Z,1.16
2023-03-02T06:43:15.912Z,1.11
2023-03-02T06:45:43.491Z,1.02
2023-03-02T06:48:11.129Z,1.13
2023-03-02T06:50:40.089Z,1.08
2023-03-02T06:53:07.602Z,1.06
2023-03-02T06:55:35.130Z,0.81
2023-03-02T06:58:02.671Z,0.88
2023-03-02T07:00:30.580Z,0.95
2023-03-02T07:02:58.142Z,1.09
2023-03-02T07:05:25.744Z,1.17
2023-03-02T07:07:54.593Z,1.07
2023-03-02T07:10:22.222Z,1.13
2023-03-02T07:12:49.727Z,1.20
2023-03-02T07:15:17.628Z,1.19
2023-03-02T07:17:46.168Z,1.15
2023-03-02T07:20:15.972Z,1.15
2023-03-02T07:22:44.462Z,1.02
2023-03-02T07:25:13.318Z,0.97
2023-03-02T07:27:41.909Z,1.01
2023-03-02T07:30:10.673Z,1.01
2023-03-02T07:32:38.331Z,1.06
2023-03-02T07:35:06.592Z,1.09
2023-03-02T07:37:34.304Z,1.09
2023-03-02T07:40:01.905Z,1.08
2023-03-02T07:42:30.755Z,1.03
2023-03-02T07:44:59.597Z,1.04
2023-03-02T07:47:27.300Z,1.03
2023-03-02T07:49:54.848Z,1.13
2023-03-02T07:52:22.683Z,1.01
2023-03-02T07:54:50.474Z,1.12
2023-03-02T07:57:18.120Z,1.11
2023-03-02T07:59:46.960Z,0.98
2023-03-02T08:02:16.503Z,1.10
2023-03-02T08:04:44.576Z,1.04
2023-03-02T08:07:12.121Z,1.13
2023-03-02T08:09:40.302Z,1.19
2023-03-02T08:12:08.057Z,1.24
2023-03-02T08:14:35.679Z,1.32
2023-03-02T08:17:05.012Z,1.37
2023-03-02T08:19:32.597Z,1.45
2023-03-02T08:22:00.723Z,1.45
2023-03-02T08:24:28.379Z,1.56
2023-03-02T08:26:56.036Z,1.68
2023-03-02T08:29:24.608Z,1.48
2023-03-02T08:31:52.296Z,1.58
2023-03-02T08:34:21.512Z,1.66
2023-03-02T08:36:49.061Z,1.54
2023-03-02T08:39:16.584Z,1.61
2023-03-02T08:41:44.269Z,1.58
2023-03-02T08:44:11.826Z,1.64
2023-03-02T08:46:39.366Z,1.77
2023-03-02T08:49:06.871Z,1.81
2023-03-02T08:51:35.878Z,1.73
2023-03-02T08:54:03.591Z,1.77
2023-03-02T08:56:34.348Z,1.83
2023-03-02T08:59:05.161Z,1.72
2023-03-02T09:01:34.918Z,1.58
2023-03-02T09:04:06.965Z,1.70
2023-03-02T09:06:37.872Z,1.65
2023-03-02T09:09:05.852Z,1.67
2023-03-02T09:11:34.115Z,1.61
2023-03-02T09:14:02.167Z,1.61
2023-03-02T09:16:29.875Z,1.79
2023-03-02T09:18:57.413Z,1.82
2023-03-02T09:21:25.638Z,1.92
2023-03-02T09:23:57.851Z,1.98
2023-03-02T09:26:25.689Z,1.99
2023-03-02T09:28:53.301Z,2.03
2023-03-02T09:31:21.223Z,2.01
2023-03-02T09:33:49.047Z,1.99
2023-03-02T09:36:23.984Z,1.97
2023-03-02T09:38:51.646Z,2.03
2023-03-02T09:41:35.713Z,1.98
2023-03-02T09:44:16.822Z,2.03
2023-03-02T09:46:48.733Z,2.09
2023-03-02T09:49:28.384Z,2.05
2023-03-02T09:52:11.504Z,2.05
2023-03-02T09:54:39.811Z,2.01
2023-03-02T09:57:21.742Z,2.11
2023-03-02T09:59:54.853Z,2.09
2023-03-02T10:02:26.536Z,2.03
2023-03-02T10:04:56.944Z,2.19
2023-03-02T10:07:29.360Z,2.24
2023-03-02T10:10:03.810Z,2.34
2023-03-02T10:12:54.779Z,2.37
2023-03-02T10:15:27.069Z,2.37
2023-03-02T10:18:02.011Z,2.45
2023-03-02T10:20:34.432Z,2.14
2023-03-02T10:23:14.051Z,2.43
2023-03-02T10:25:48.488Z,2.46
2023-03-02T10:28:21.427Z,2.55
2023-03-02T10:30:54.699Z,2.72
2023-03-02T10:33:23.117Z,2.72
2023-03-02T10:35:52.447Z,2.77
2023-03-02T10:38:22.314Z,2.81
2023-03-02T10:40:53.132Z,2.84
2023-03-02T10:43:31.261Z,2.92
2023-03-02T10:46:00.900Z,2.97
2023-03-02T10:48:29.015Z,2.92
2023-03-02T10:50:58.088Z,2.83
2023-03-02T10:53:25.892Z,2.96
2023-03-02T10:55:54.728Z,3.08
2023-03-02T10:58:26.708Z,3.03
2023-03-02T11:00:59.763Z,3.08
2023-03-02T11:03:27.693Z,3.03
2023-03-02T11:05:55.591Z,3.08
2023-03-02T11:08:25.185Z,3.14
2023-03-02T11:10:56.990Z,3.15
2023-03-02T11:13:30.886Z,3.27
2023-03-02T11:16:00.627Z,3.34
2023-03-02T11:18:31.934Z,3.43
2023-03-02T11:21:03.210Z,3.35
2023-03-02T11:23:37.301Z,3.36
2023-03-02T11:26:11.881Z,3.29
2023-03-02T11:28:47.851Z,3.26
2023-03-02T11:31:23.815Z,3.39
2023-03-02T11:34:17.216Z,3.36
2023-03-02T11:36:53.541Z,3.39
2023-03-02T11:39:26.352Z,3.32
2023-03-02T11:41:54.256Z,3.45
2023-03-02T11:44:27.293Z,3.39
2023-03-02T11:47:02.269Z,3.52
2023-03-02T11:49:40.623Z,3.50
2023-03-02T11:52:18.454Z,3.56
2023-03-02T11:54:50.563Z,3.47
2023-03-02T11:57:22.216Z,3.63
2023-03-02T11:59:52.709Z,3.67
2023-03-02T12:02:21.905Z,3.47
2023-03-02T12:04:49.786Z,3.66
2023-03-02T12:07:22.758Z,3.73
2023-03-02T12:10:03.240Z,3.71
2023-03-02T12:12:36.590Z,3.81
2023-03-02T12:15:29.630Z,3.64
2023-03-02T12:17:57.272Z,3.74
2023-03-02T12:20:28.098Z,3.81
2023-03-02T12:23:08.193Z,3.92
2023-03-02T12:25:49.537Z,3.91
2023-03-02T12:28:31.715Z,3.97
2023-03-02T12:31:10.582Z,4.05
2023-03-02T12:33:49.691Z,4.11
2023-03-02T12:36:25.624Z,4.18
2023-03-02T12:39:10.743Z,4.27
2023-03-02T12:41:59.154Z,4.31
2023-03-02T12:44:43.826Z,4.32
2023-03-02T12:47:21.568Z,4.41
2023-03-02T12:49:54.496Z,4.29
2023-03-02T12:52:28.616Z,4.27
2023-03-02T12:55:05.628Z,4.24
2023-03-02T12:57:33.548Z,4.31
2023-03-02T13:00:03.309Z,4.25
2023-03-02T13:02:34.931Z,4.30
2023-03-02T13:05:05.027Z,4.40
2023-03-02T13:07:37.524Z,4.29
2023-03-02T13:10:10.489Z,4.28
2023-03-02T13:12:38.561Z,4.36
2023-03-02T13:15:16.662Z,4.32
2023-03-02T13:17:53.223Z,4.38
2023-03-02T13:20:22.926Z,4.41
2023-03-02T13:22:51.243Z,4.52
2023-03-02T13:25:27.799Z,4.30
2023-03-02T13:27:57.616Z,4.45
2023-03-02T13:30:27.646Z,4.39
2023-03-02T13:33:02.669Z,4.45
2023-03-02T13:35:32.778Z,4.49
2023-03-02T13:38:04.394Z,4.56
2023-03-02T13:40:38.993Z,4.65
2023-03-02T13:43:21.294Z,4.83
2023-03-02T13:45:54.037Z,4.57
2023-03-02T13:48:23.714Z,4.52
2023-03-02T13:50:57.179Z,4.52
2023-03-02T13:53:25.862Z,4.45
2023-03-02T13:55:55.018Z,4.48
2023-03-02T13:58:25.284Z,4.64
2023-03-02T14:00:53.452Z,4.59
2023-03-02T14:03:27.558Z,4.60
2023-03-02T14:05:56.738Z,4.55
2023-03-02T14:08:24.579Z,4.46
2023-03-02T14:10:57.132Z,4.34
2023-03-02T14:13:30.772Z,4.50
2023-03-02T14:15:58.409Z,4.52
2023-03-02T14:18:36.984Z,4.45
2023-03-02T14:21:05.067Z,4.48
2023-03-02T14:23:32.938Z,4.43
2023-03-02T14:26:00.545Z,4.45
2023-03-02T14:28:35.184Z,4.57
2023-03-02T14:31:02.790Z,4.53
2023-03-02T14:33:31.719Z,4.44
2023-03-02T14:35:59.771Z,4.44
2023-03-02T14:38:28.635Z,4.48
2023-03-02T14:40:56.826Z,4.53
2023-03-02T14:43:25.198Z,4.58
2023-03-02T14:45:52.982Z,4.70
2023-03-02T14:48:20.676Z,4.62
2023-03-02T14:50:51.096Z,4.70
2023-03-02T14:53:21.318Z,4.62
2023-03-02T14:55:49.113Z,4.67
2023-03-02T14:58:20.389Z,4.58
2023-03-02T15:00:48.370Z,4.65
2023-03-02T15:03:19.138Z,4.59
2023-03-02T15:06:00.361Z,4.52
2023-03-02T15:08:30.469Z,4.53
2023-03-02T15:10:58.107Z,4.44
2023-03-02T15:13:25.676Z,4.41
2023-03-02T15:15:53.555Z,4.48
2023-03-02T15:18:21.146Z,4.60
2023-03-02T15:20:48.738Z,4.53
2023-03-02T15:23:16.306Z,4.38
2023-03-02T15:25:45.176Z,4.49
2023-03-02T15:28:12.770Z,4.40
2023-03-02T15:30:41.618Z,4.50
2023-03-02T15:33:09.206Z,4.48
2023-03-02T15:35:40.135Z,4.32
2023-03-02T15:38:07.876Z,4.44
2023-03-02T15:40:36.903Z,4.57
2023-03-02T15:43:05.776Z,4.44
2023-03-02T15:45:33.402Z,4.45
2023-03-02T15:48:00.902Z,4.47
2023-03-02T15:50:28.411Z,4.49
2023-03-02T15:52:57.320Z,4.50
2023-03-02T15:55:24.881Z,4.31
2023-03-02T15:57:52.482Z,4.42
2023-03-02T16:00:22.418Z,4.38
2023-03-02T16:02:50.317Z,4.38
2023-03-02T16:05:18.064Z,4.28
2023-03-02T16:07:45.555Z,4.38
2023-03-02T16:10:16.362Z,4.43
2023-03-02T16:12:44.023Z,4.46
2023-03-02T16:15:11.872Z,4.48
2023-03-02T16:17:40.742Z,4.50
2023-03-02T16:20:09.158Z,4.51
2023-03-02T16:22:36.667Z,4.53
2023-03-02T16:25:04.350Z,4.55
2023-03-02T16:27:31.877Z,4.51
2023-03-02T16:29:59.473Z,4.53
2023-03-02T16:32:27.058Z,4.48
2023-03-02T16:34:56.793Z,4.46
2023-03-02T16:37:24.403Z,4.46
2023-03-02T16:39:51.979Z,4.45
2023-03-02T16:42:21.026Z,4.45
2023-03-02T16:44:50.707Z,4.45
2023-03-02T16:47:18.365Z,4.49
2023-03-02T16:49:45.931Z,4.46
2023-03-02T16:52:15.107Z,4.50
2023-03-02T16:54:43.225Z,4.49
2023-03-02T16:57:10.879Z,4.49
2023-03-02T16:59:38.383Z,4.52
2023-03-02T17:02:06.063Z,4.55
2023-03-02T17:04:34.773Z,4.48
2023-03-02T17:07:03.046Z,4.45
2023-03-02T17:09:32.496Z,4.45
2023-03-02T17:12:00.038Z,4.44
2023-03-02T17:14:27.982Z,4.47
2023-03-02T17:16:56.344Z,4.47
2023-03-02T17:19:27.151Z,4.49
2023-03-02T17:21:56.959Z,4.48
2023-03-02T17:24:24.590Z,4.46
2023-03-02T17:26:53.461Z,4.48
2023-03-02T17:29:21.197Z,4.43
2023-03-02T17:31:48.732Z,4.44
2023-03-02T17:34:16.326Z,4.44
2023-03-02T17:36:44.093Z,4.40
2023-03-02T17:39:11.656Z,4.37
2023-03-02T17:41:39.511Z,4.29
2023-03-02T17:44:08.354Z,4.25
2023-03-02T17:46:35.915Z,4.31
2023-03-02T17:49:03.970Z,4.30
2023-03-02T17:51:31.606Z,4.31
2023-03-02T17:53:59.220Z,4.28
2023-03-02T17:56:28.385Z,4.27
2023-03-02T17:58:57.959Z,4.21
2023-03-02T18:01:28.431Z,4.20
2023-03-02T18:03:56.459Z,4.17
2023-03-02T18:06:24.412Z,4.18
2023-03-02T18:08:52.813Z,4.26
2023-03-02T18:11:22.873Z,4.22
2023-03-02T18:13:51.381Z,4.25
2023-03-02T18:16:18.934Z,4.18
2023-03-02T18:18:48.339Z,4.23
2023-03-02T18:21:15.976Z,4.02
2023-03-02T18:23:44.730Z,3.88
2023-03-02T18:26:14.025Z,3.78
2023-03-02T18:28:41.853Z,3.64
2023-03-02T18:31:11.181Z,3.57
2023-03-02T18:33:38.933Z,3.66
2023-03-02T18:36:08.906Z,3.71
2023-03-02T18:38:37.015Z,3.72
2023-03-02T18:41:07.123Z,3.75
2023-03-02T18:43:38.305Z,3.78
2023-03-02T18:46:06.502Z,3.51
2023-03-02T18:48:34.075Z,3.28
2023-03-02T18:51:01.694Z,3.07
2023-03-02T18:53:30.566Z,2.86
2023-03-02T18:55:58.138Z,2.83
2023-03-02T18:58:26.082Z,2.91
2023-03-02T19:00:54.772Z,2.75
2023-03-02T19:03:22.454Z,2.67
2023-03-02T19:05:49.962Z,2.62
2023-03-02T19:08:17.518Z,2.61
2023-03-02T19:10:46.357Z,2.58
2023-03-02T19:13:15.455Z,2.49
2023-03-02T19:15:43.957Z,2.38
2023-03-02T19:18:16.035Z,2.30
2023-03-02T19:20:43.638Z,2.21
2023-03-02T19:23:11.224Z,2.24
2023-03-02T19:25:39.900Z,2.16
2023-03-02T19:28:09.458Z,2.02
2023-03-02T19:30:37.592Z,2.00
2023-03-02T19:33:07.090Z,1.98
2023-03-02T19:35:35.194Z,1.93
2023-03-02T19:38:02.714Z,1.85
2023-03-02T19:40:31.152Z,1.87
2023-03-02T19:42:59.038Z,1.95
2023-03-02T19:45:31.221Z,1.88
2023-03-02T19:48:00.283Z,1.92
2023-03-02T19:50:28.944Z,2.09
2023-03-02T19:52:56.643Z,2.19
2023-03-02T19:55:25.201Z,2.02
2023-03-02T19:57:59.741Z,1.90
2023-03-02T20:00:31.710Z,1.76
2023-03-02T20:03:00.043Z,1.66
2023-03-02T20:05:28.601Z,1.56
2023-03-02T20:07:56.207Z,1.48
2023-03-02T20:10:30.115Z,1.43
2023-03-02T20:12:59.296Z,1.41
2023-03-02T20:15:29.854Z,1.45
2023-03-02T20:17:59.271Z,1.61
2023-03-02T20:20:27.795Z,1.65
2023-03-02T20:22:55.333Z,1.63
2023-03-02T20:25:22.915Z,1.63
2023-03-02T20:27:51.722Z,1.52
2023-03-02T20:30:23.039Z,1.44
2023-03-02T20:32:51.957Z,1.34
2023-03-02T20:35:20.737Z,1.31
2023-03-02T20:37:48.377Z,1.33
2023-03-02T20:40:17.610Z,1.31
2023-03-02T20:42:45.218Z,1.20
2023-03-02T20:45:13.985Z,1.27
2023-03-02T20:47:42.323Z,1.46
2023-03-02T20:50:14.717Z,1.50
2023-03-02T20:52:42.340Z,1.51
2023-03-02T20:55:11.700Z,1.40
2023-03-02T20:57:40.190Z,1.42
2023-03-02T21:00:11.506Z,1.42
2023-03-02T21:02:39.077Z,1.42
2023-03-02T21:05:07.301Z,1.58
2023-03-02T21:07:36.560Z,1.43
2023-03-02T21:10:06.148Z,1.26
2023-03-02T21:12:34.047Z,1.18
2023-03-02T21:15:02.261Z,1.11
2023-03-02T21:17:31.425Z,1.00
2023-03-02T21:19:59.182Z,1.00
2023-03-02T21:22:26.714Z,0.94
2023-03-02T21:24:55.579Z,0.91
2023-03-02T21:27:23.079Z,0.93
2023-03-02T21:29:50.645Z,0.99
2023-03-02T21:32:18.315Z,1.14
2023-03-02T21:34:45.857Z,1.00
2023-03-02T21:37:13.444Z,0.91
2023-03-02T21:39:41.048Z,0.91
2023-03-02T21:42:09.936Z,0.80
2023-03-02T21:44:37.860Z,0.77
2023-03-02T21:47:05.505Z,0.70
2023-03-02T21:49:33.098Z,0.59
2023-03-02T21:52:01.696Z,0.57
2023-03-02T21:54:29.358Z,0.60
2023-03-02T21:56:56.852Z,0.70
2023-03-02T21:59:25.721Z,0.68
2023-03-02T22:01:53.287Z,0.67
2023-03-02T22:04:20.880Z,0.61
2023-03-02T22:06:48.448Z,0.59
2023-03-02T22:09:15.946Z,0.57
2023-03-02T22:11:44.334Z,0.62
2023-03-02T22:14:13.885Z,0.67
2023-03-02T22:16:46.247Z,0.58
2023-03-02T22:19:28.269Z,0.53
2023-03-02T22:21:57.454Z,0.51
2023-03-02T22:24:26.704Z,0.45
2023-03-02T22:26:59.573Z,0.42
2023-03-02T22:29:29.562Z,0.49
2023-03-02T22:32:13.884Z,0.46
2023-03-02T22:34:43.915Z,0.51
2023-03-02T22:37:13.767Z,0.61
2023-03-02T22:39:42.369Z,0.54
2023-03-02T22:42:14.339Z,0.59
2023-03-02T22:44:41.948Z,0.57
2023-03-02T22:47:16.719Z,0.50
2023-03-02T22:49:44.523Z,0.60
2023-03-02T22:52:17.767Z,0.65
2023-03-02T22:54:46.459Z,0.70
2023-03-02T22:57:29.617Z,0.68
2023-03-02T23:00:30.200Z,0.67
2023-03-02T23:02:59.162Z,0.71
2023-03-02T23:05:30.157Z,0.65
2023-03-02T23:08:08.635Z,0.59
2023-03-02T23:10:36.195Z,0.47
2023-03-02T23:13:03.773Z,0.46
2023-03-02T23:15:36.776Z,0.43
2023-03-02T23:18:16.725Z,0.46
2023-03-02T23:20:44.290Z,0.40
2023-03-02T23:23:11.846Z,0.34
2023-03-02T23:25:39.418Z,0.32
2023-03-02T23:28:07.393Z,0.33
2023-03-02T23:30:34.962Z,0.36
2023-03-02T23:33:02.483Z,0.39
2023-03-02T23:35:31.613Z,0.41
2023-03-02T23:38:01.364Z,0.24
2023-03-02T23:40:29.530Z,0.24
2023-03-02T23:42:57.022Z,0.27
2023-03-02T23:45:24.540Z,0.21
2023-03-02T23:47:52.152Z,0.18
2023-03-02T23:50:19.772Z,0.18
2023-03-02T23:52:49.178Z,0.18
2023-03-02T23:55:16.857Z,0.17
2023-03-02T23:57:44.338Z,0.09
